createdAt,value
2019-03-11T00:03:45.771Z,96508.83
2019-03-11T00:06:35.487Z,96514.94
2019-03-11T00:09:17.649Z,96509.00
2019-03-11T00:12:07.435Z,96514.11
2019-03-11T00:14:49.719Z,96493.38
2019-03-11T00:17:39.571Z,96510.41
2019-03-11T00:20:22.743Z,96508.14
2019-03-11T00:23:12.515Z,96518.63
2019-03-11T00:25:57.039Z,96493.38
2019-03-11T00:28:46.799Z,96523.13
2019-03-11T00:37:41.916Z,96528.98
2019-03-11T00:40:31.661Z,96536.28
2019-03-11T00:43:14.095Z,96532.37
2019-03-11T00:46:03.839Z,96543.86
2019-03-11T00:49:06.060Z,96536.23
2019-03-11T00:51:48.721Z,96540.27
2019-03-11T00:54:38.626Z,96521.39
2019-03-11T00:57:28.411Z,96544.12
2019-03-11T01:00:53.263Z,96552.23
2019-03-11T01:03:36.016Z,96533.94
2019-03-11T01:06:25.774Z,96550.82
2019-03-11T01:09:15.910Z,96552.84
2019-03-11T01:12:05.808Z,96524.73
2019-03-11T01:14:55.692Z,96540.57
2019-03-11T01:17:45.471Z,96536.95
2019-03-11T01:20:35.209Z,96519.81
2019-03-11T01:23:24.962Z,96527.12
2019-03-11T01:26:14.806Z,96524.86
2019-03-11T01:29:23.839Z,96523.31
2019-03-11T01:32:13.741Z,96497.92
2019-03-11T01:35:03.623Z,96512.17
2019-03-11T01:37:53.595Z,96511.97
2019-03-11T01:40:43.373Z,96520.63
2019-03-11T01:43:33.102Z,96516.47
2019-03-11T01:46:22.902Z,96507.69
2019-03-11T01:49:05.690Z,96511.66
2019-03-11T01:51:55.446Z,96501.48
2019-03-11T01:54:45.580Z,96515.58
2019-03-11T01:57:54.510Z,96482.64
2019-03-11T02:00:44.374Z,96506.25
2019-03-11T02:03:34.130Z,96510.39
2019-03-11T02:06:24.080Z,96504.78
2019-03-11T02:12:08.247Z,96498.23
2019-03-11T02:17:53.156Z,96481.71
2019-03-11T02:20:42.998Z,96469.23
2019-03-11T02:23:32.934Z,96438.01
2019-03-11T02:26:22.678Z,96460.66
2019-03-11T02:29:12.498Z,96444.28
2019-03-11T02:32:02.346Z,96464.52
2019-03-11T02:34:52.081Z,96441.69
2019-03-11T02:37:41.890Z,96422.12
2019-03-11T02:40:24.146Z,96454.03
2019-03-11T02:48:36.922Z,96456.78
2019-03-11T02:51:28.303Z,96447.09
2019-03-11T02:54:17.998Z,96432.81
2019-03-11T02:57:07.754Z,96435.50
2019-03-11T02:59:50.260Z,96417.41
2019-03-11T03:02:58.900Z,96441.81
2019-03-11T03:05:47.307Z,96433.82
2019-03-11T03:08:37.070Z,96399.97
2019-03-11T03:11:26.866Z,96407.14
2019-03-11T03:14:16.610Z,96403.77
2019-03-11T03:17:06.333Z,96405.05
2019-03-11T03:19:49.302Z,96375.19
2019-03-11T03:22:39.089Z,96404.83
2019-03-11T03:28:45.761Z,96395.25
2019-03-11T03:31:35.513Z,96394.32
2019-03-11T03:34:18.635Z,96390.61
2019-03-11T03:37:08.759Z,96367.02
2019-03-11T03:39:50.844Z,96392.47
2019-03-11T03:42:40.623Z,96396.87
2019-03-11T03:45:28.306Z,96395.30
2019-03-11T03:48:18.106Z,96402.72
2019-03-11T03:51:01.173Z,96405.41
2019-03-11T03:53:50.906Z,96407.43
2019-03-11T03:56:33.351Z,96366.77
2019-03-11T03:59:23.098Z,96398.53
2019-03-11T04:02:12.856Z,96395.27
2019-03-11T04:05:02.721Z,96389.77
2019-03-11T04:07:52.459Z,96375.95
2019-03-11T04:10:42.222Z,96353.07
2019-03-11T04:13:31.990Z,96378.87
2019-03-11T04:16:21.750Z,96379.55
2019-03-11T04:19:11.496Z,96386.43
2019-03-11T04:25:19.136Z,96369.77
2019-03-11T04:28:08.835Z,96353.27
2019-03-11T04:30:51.038Z,96369.77
2019-03-11T04:36:25.637Z,96365.41
2019-03-11T04:39:15.579Z,96365.53
2019-03-11T04:41:57.952Z,96358.11
2019-03-11T04:44:47.795Z,96350.14
2019-03-11T04:47:30.476Z,96368.59
2019-03-11T04:50:20.292Z,96372.72
2019-03-11T04:53:02.660Z,96370.35
2019-03-11T05:01:19.080Z,96364.41
2019-03-11T05:04:08.821Z,96345.71
2019-03-11T05:06:51.555Z,96346.94
2019-03-11T05:09:41.360Z,96341.99
2019-03-11T05:12:43.981Z,96335.55
2019-03-11T05:15:26.382Z,96329.76
2019-03-11T05:18:16.129Z,96318.27
2019-03-11T05:20:58.622Z,96316.12
2019-03-11T05:26:44.374Z,96313.98
2019-03-11T05:29:27.021Z,96295.56
2019-03-11T05:35:11.778Z,96308.15
2019-03-11T05:38:01.628Z,96303.23
2019-03-11T05:44:15.984Z,96301.39
2019-03-11T05:46:58.465Z,96258.04
2019-03-11T05:49:48.216Z,96260.75
2019-03-11T05:52:37.934Z,96264.47
2019-03-11T05:55:20.952Z,96266.15
2019-03-11T05:58:05.425Z,96263.67
2019-03-11T06:00:47.848Z,96264.53
2019-03-11T06:03:37.620Z,96247.89
2019-03-11T06:06:27.626Z,96261.27
2019-03-11T06:09:17.341Z,96261.92
2019-03-11T06:12:00.422Z,96271.02
2019-03-11T06:14:50.110Z,96257.61
2019-03-11T06:17:32.711Z,96258.03
2019-03-11T06:20:35.834Z,96235.31
2019-03-11T06:23:18.544Z,96248.71
2019-03-11T06:26:00.688Z,96240.08
2019-03-11T06:28:50.511Z,96253.59
2019-03-11T06:31:40.510Z,96253.52
2019-03-11T06:37:36.151Z,96275.56
2019-03-11T06:40:19.164Z,96291.63
2019-03-11T06:46:19.429Z,96291.44
2019-03-11T06:49:02.389Z,96296.70
2019-03-11T06:51:52.129Z,96301.69
2019-03-11T06:54:42.635Z,96306.18
2019-03-11T06:57:32.485Z,96318.91
2019-03-11T07:00:22.386Z,96289.50
2019-03-11T07:03:12.151Z,96310.16
2019-03-11T07:15:03.068Z,96301.52
2019-03-11T07:17:45.167Z,96307.69
2019-03-11T07:20:35.091Z,96278.16
2019-03-11T07:23:24.985Z,96296.35
2019-03-11T07:26:14.999Z,96306.91
2019-03-11T07:29:16.902Z,96303.45
2019-03-11T07:31:59.151Z,96302.23
2019-03-11T07:35:08.487Z,96322.33
2019-03-11T07:37:46.614Z,96338.38
2019-03-11T07:40:36.599Z,96338.30
2019-03-11T07:43:38.752Z,96300.45
2019-03-11T07:46:21.205Z,96324.02
2019-03-11T07:52:05.663Z,96322.20
2019-03-11T07:54:55.483Z,96335.02
2019-03-11T07:57:45.259Z,96310.20
2019-03-11T08:03:29.771Z,96338.27
2019-03-11T08:06:19.682Z,96336.13
2019-03-11T08:09:09.455Z,96336.25
2019-03-11T08:11:59.264Z,96331.77
2019-03-11T08:14:48.970Z,96323.09
2019-03-11T08:17:32.100Z,96343.39
2019-03-11T08:20:15.203Z,96339.02
2019-03-11T08:23:04.961Z,96338.91
2019-03-11T08:25:49.313Z,96349.25
2019-03-11T08:28:39.043Z,96359.25
2019-03-11T08:31:21.407Z,96415.23
2019-03-11T08:34:11.227Z,96432.69
2019-03-11T08:36:53.195Z,96449.87
2019-03-11T08:39:42.965Z,96433.73
2019-03-11T08:42:25.646Z,96435.41
2019-03-11T08:45:15.454Z,96417.09
2019-03-11T08:47:58.346Z,96453.88
2019-03-11T08:50:48.106Z,96463.89
2019-03-11T08:53:31.834Z,96444.98
2019-03-11T08:59:17.230Z,96417.67
2019-03-11T09:02:07.152Z,96430.30
2019-03-11T09:05:15.976Z,96444.73
2019-03-11T09:08:17.658Z,96450.16
2019-03-11T09:11:00.403Z,96460.54
2019-03-11T09:13:50.195Z,96448.94
2019-03-11T09:16:51.674Z,96467.22
2019-03-11T09:22:38.813Z,96460.64
2019-03-11T09:25:12.474Z,96449.18
2019-03-11T09:28:04.516Z,96450.78
2019-03-11T09:30:54.198Z,96442.70
2019-03-11T09:33:37.269Z,96441.47
2019-03-11T09:36:27.008Z,96430.91
2019-03-11T09:39:16.720Z,96426.28
2019-03-11T09:41:58.787Z,96422.64
2019-03-11T09:44:41.284Z,96418.74
2019-03-11T09:47:31.084Z,96411.48
2019-03-11T09:53:15.599Z,96419.05
2019-03-11T09:56:05.557Z,96421.49
2019-03-11T09:58:55.310Z,96419.88
2019-03-11T10:01:45.227Z,96420.94
2019-03-11T10:04:35.127Z,96424.75
2019-03-11T10:07:24.903Z,96425.30
2019-03-11T10:10:15.497Z,96413.72
2019-03-11T10:13:05.360Z,96408.24
2019-03-11T10:15:47.444Z,96410.03
2019-03-11T10:18:39.183Z,96398.88
2019-03-11T10:21:21.217Z,96379.33
2019-03-11T10:24:24.235Z,96380.70
2019-03-11T10:27:07.120Z,96403.04
2019-03-11T10:29:56.853Z,96386.34
2019-03-11T10:32:46.713Z,96395.34
2019-03-11T10:35:32.882Z,96411.97
2019-03-11T10:38:20.343Z,96414.62
2019-03-11T10:41:23.481Z,96428.48
2019-03-11T10:44:06.077Z,96402.30
2019-03-11T10:46:55.929Z,96449.47
2019-03-11T10:49:45.701Z,96450.48
2019-03-11T10:52:35.399Z,96438.70
2019-03-11T10:55:25.229Z,96425.66
2019-03-11T10:58:14.937Z,96427.55
2019-03-11T11:00:57.860Z,96457.98
2019-03-11T11:03:47.655Z,96468.41
2019-03-11T11:06:30.496Z,96453.00
2019-03-11T11:09:12.689Z,96449.84
2019-03-11T11:12:02.553Z,96445.79
2019-03-11T11:14:52.323Z,96437.77
2019-03-11T11:17:36.095Z,96469.25
2019-03-11T11:20:25.857Z,96486.45
2019-03-11T11:23:08.677Z,96508.89
2019-03-11T11:34:38.283Z,96538.31
2019-03-11T11:37:28.047Z,96564.47
2019-03-11T11:40:19.846Z,96558.06
2019-03-11T11:43:09.606Z,96568.03
2019-03-11T11:48:54.255Z,96610.24
2019-03-11T11:51:44.137Z,96609.45
2019-03-11T11:54:34.034Z,96603.44
2019-03-11T11:57:35.757Z,96599.77
2019-03-11T12:00:20.274Z,96604.63
2019-03-11T12:03:10.073Z,96576.17
2019-03-11T12:05:52.524Z,96608.40
2019-03-11T12:08:34.839Z,96594.65
2019-03-11T12:14:41.850Z,96590.28
2019-03-11T12:20:26.794Z,96587.16
2019-03-11T12:23:29.973Z,96588.33
2019-03-11T12:26:13.016Z,96564.95
2019-03-11T12:29:02.857Z,96580.63
2019-03-11T12:34:46.764Z,96570.80
2019-03-11T12:37:36.498Z,96571.31
2019-03-11T12:40:19.194Z,96566.70
2019-03-11T12:46:04.137Z,96582.49
2019-03-11T12:48:46.207Z,96578.60
2019-03-11T12:51:50.086Z,96580.05
2019-03-11T12:54:32.338Z,96593.73
2019-03-11T12:57:22.143Z,96603.48
2019-03-11T13:00:14.271Z,96612.11
2019-03-11T13:03:04.082Z,96609.17
2019-03-11T13:05:53.858Z,96606.48
2019-03-11T13:08:43.582Z,96615.70
2019-03-11T13:11:26.259Z,96616.45
2019-03-11T13:17:34.335Z,96636.05
2019-03-11T13:20:43.430Z,96612.52
2019-03-11T13:23:25.744Z,96623.98
2019-03-11T13:29:13.264Z,96627.61
2019-03-11T13:31:55.694Z,96635.90
2019-03-11T13:34:45.685Z,96640.62
2019-03-11T13:37:35.519Z,96647.47
2019-03-11T13:43:20.274Z,96646.23
2019-03-11T13:49:04.674Z,96656.38
2019-03-11T13:51:54.492Z,96666.86
2019-03-11T13:54:56.084Z,96669.27
2019-03-11T13:57:40.509Z,96674.58
2019-03-11T14:00:23.098Z,96683.50
2019-03-11T14:03:12.944Z,96680.74
2019-03-11T14:08:59.045Z,96693.64
2019-03-11T14:11:49.011Z,96686.69
2019-03-11T14:14:38.726Z,96698.05
2019-03-11T14:17:28.566Z,96664.59
2019-03-11T14:20:10.940Z,96694.19
2019-03-11T14:23:19.808Z,96699.52
2019-03-11T14:26:21.598Z,96680.20
2019-03-11T14:29:04.178Z,96695.58
2019-03-11T14:31:53.947Z,96698.52
2019-03-11T14:34:43.992Z,96680.40
2019-03-11T14:37:33.761Z,96687.73
2019-03-11T14:40:23.605Z,96702.66
2019-03-11T14:49:31.813Z,96713.02
2019-03-11T14:55:16.330Z,96720.78
2019-03-11T14:58:06.169Z,96719.67
2019-03-11T15:00:56.024Z,96715.20
2019-03-11T15:03:38.377Z,96724.23
2019-03-11T15:06:28.144Z,96713.78
2019-03-11T15:09:17.991Z,96715.20
2019-03-11T15:12:21.148Z,96722.38
2019-03-11T15:15:06.168Z,96721.38
2019-03-11T15:17:55.987Z,96695.75
2019-03-11T15:20:57.737Z,96711.79
2019-03-11T15:23:40.249Z,96711.48
2019-03-11T15:26:30.059Z,96706.05
2019-03-11T15:29:19.804Z,96721.84
2019-03-11T15:32:09.611Z,96719.56
2019-03-11T15:34:52.400Z,96723.02
2019-03-11T15:37:42.213Z,96720.91
2019-03-11T15:40:24.341Z,96730.84
2019-03-11T15:46:09.681Z,96731.74
2019-03-11T15:51:42.111Z,96723.36
2019-03-11T15:54:31.905Z,96720.58
2019-03-11T15:57:14.725Z,96724.23
2019-03-11T16:00:04.693Z,96717.29
2019-03-11T16:02:48.325Z,96714.03
2019-03-11T16:05:38.051Z,96698.05
2019-03-11T16:08:20.737Z,96693.31
2019-03-11T16:11:10.481Z,96690.92
2019-03-11T16:13:52.999Z,96723.17
2019-03-11T16:16:37.389Z,96723.67
2019-03-11T16:19:20.207Z,96726.11
2019-03-11T16:22:10.077Z,96727.32
2019-03-11T16:24:54.244Z,96730.02
2019-03-11T16:27:44.071Z,96725.06
2019-03-11T16:30:33.893Z,96727.11
2019-03-11T16:36:18.310Z,96720.23
2019-03-11T16:42:22.988Z,96733.80
2019-03-11T16:45:12.980Z,96732.80
2019-03-11T16:48:21.871Z,96723.30
2019-03-11T16:51:11.652Z,96718.89
2019-03-11T16:56:56.192Z,96756.59
2019-03-11T16:59:46.047Z,96737.05
2019-03-11T17:02:47.719Z,96747.08
2019-03-11T17:05:30.641Z,96777.43
2019-03-11T17:08:32.463Z,96775.87
2019-03-11T17:11:15.412Z,96773.39
2019-03-11T17:17:23.422Z,96779.04
2019-03-11T17:20:13.415Z,96788.62
2019-03-11T17:22:56.362Z,96765.52
2019-03-11T17:25:46.122Z,96788.92
2019-03-11T17:31:31.564Z,96791.87
2019-03-11T17:34:21.310Z,96774.20
2019-03-11T17:37:03.489Z,96795.31
2019-03-11T17:39:53.258Z,96806.48
2019-03-11T17:42:35.570Z,96808.00
2019-03-11T17:45:25.322Z,96821.54
2019-03-11T17:48:07.468Z,96826.67
2019-03-11T17:50:57.179Z,96816.96
2019-03-11T17:53:39.472Z,96846.55
2019-03-11T17:56:29.328Z,96848.61
2019-03-11T18:04:45.841Z,96859.84
2019-03-11T18:07:35.591Z,96853.41
2019-03-11T18:10:18.154Z,96857.70
2019-03-11T18:13:07.941Z,96854.13
2019-03-11T18:15:51.984Z,96856.43
2019-03-11T18:18:34.106Z,96873.20
2019-03-11T18:21:23.926Z,96881.05
2019-03-11T18:24:13.757Z,96869.09
2019-03-11T18:27:22.560Z,96905.98
2019-03-11T18:30:14.628Z,96902.88
2019-03-11T18:32:56.934Z,96883.81
2019-03-11T18:35:59.642Z,96906.53
2019-03-11T18:38:42.409Z,96910.95
2019-03-11T18:41:34.214Z,96913.48
2019-03-11T18:44:16.620Z,96915.80
2019-03-11T18:47:06.415Z,96915.30
2019-03-11T18:49:48.820Z,96914.98
2019-03-11T18:52:38.529Z,96917.66
2019-03-11T18:55:28.260Z,96927.54
2019-03-11T18:58:10.787Z,96931.58
2019-03-11T19:01:12.556Z,96937.28
2019-03-11T19:03:55.241Z,96929.52
2019-03-11T19:09:49.535Z,96937.59
2019-03-11T19:15:34.783Z,96949.84
2019-03-11T19:20:44.898Z,96944.14
2019-03-11T19:23:27.324Z,96950.36
2019-03-11T19:26:17.211Z,96960.31
2019-03-11T19:29:18.636Z,96958.60
2019-03-11T19:32:01.407Z,96934.89
2019-03-11T19:34:51.313Z,96953.05
2019-03-11T19:37:41.129Z,96966.24
2019-03-11T19:43:26.348Z,96962.68
2019-03-11T19:46:16.161Z,96961.56
2019-03-11T19:49:18.029Z,96959.12
2019-03-11T19:52:00.610Z,96962.28
2019-03-11T19:58:07.359Z,96961.56
2019-03-11T20:03:54.448Z,96972.02
2019-03-11T20:06:44.321Z,96987.89
2019-03-11T20:12:22.886Z,96951.93
2019-03-11T20:14:54.018Z,96982.11
2019-03-11T20:17:43.822Z,96993.59
2019-03-11T20:20:26.275Z,96998.00
2019-03-11T20:29:41.408Z,96987.38
2019-03-11T20:32:31.433Z,96982.25
2019-03-11T20:35:18.467Z,97014.81
2019-03-11T20:38:08.240Z,97005.41
2019-03-11T20:40:50.781Z,96976.53
2019-03-11T20:43:40.541Z,97003.66
2019-03-11T20:46:23.558Z,97008.37
2019-03-11T20:49:13.488Z,97003.97
2019-03-11T20:51:56.869Z,97003.25
2019-03-11T20:54:46.646Z,97018.03
2019-03-11T20:57:29.425Z,97014.61
2019-03-11T21:00:20.213Z,97000.98
2019-03-11T21:03:02.986Z,97013.15
2019-03-11T21:05:52.925Z,96996.16
2019-03-11T21:08:39.984Z,96999.78
2019-03-11T21:11:29.782Z,97026.05
2019-03-11T21:14:12.319Z,96989.19
2019-03-11T21:17:01.989Z,96998.77
2019-03-11T21:19:44.914Z,97022.02
2019-03-11T21:22:34.675Z,96985.64
2019-03-11T21:25:17.741Z,97013.41
2019-03-11T21:28:07.581Z,97013.81
2019-03-11T21:30:52.122Z,96988.38
2019-03-11T21:34:01.005Z,97018.89
2019-03-11T21:36:44.239Z,97018.83
2019-03-11T21:42:29.065Z,97032.01
2019-03-11T21:45:19.055Z,97020.10
2019-03-11T21:48:03.454Z,97018.16
2019-03-11T21:50:53.379Z,97032.42
2019-03-11T21:53:43.071Z,97029.51
2019-03-11T21:56:32.915Z,97026.75
2019-03-11T21:59:22.695Z,97011.38
2019-03-11T22:02:05.320Z,97020.25
2019-03-11T22:04:55.038Z,97004.27
2019-03-11T22:07:38.681Z,97034.22
2019-03-11T22:10:28.432Z,97040.17
2019-03-11T22:13:12.894Z,97037.09
2019-03-11T22:16:02.632Z,97043.27
2019-03-11T22:21:36.289Z,97045.95
2019-03-11T22:24:06.962Z,97050.28
2019-03-11T22:26:56.712Z,97045.70
2019-03-11T22:29:27.495Z,97046.91
2019-03-11T22:32:17.234Z,97051.73
2019-03-11T22:35:12.650Z,97057.05
2019-03-11T22:37:55.776Z,97062.12
2019-03-11T22:40:45.531Z,97063.40
2019-03-11T22:43:28.430Z,97046.09
2019-03-11T22:46:18.146Z,97061.76
2019-03-11T22:49:00.562Z,97047.18
2019-03-11T22:51:50.334Z,97061.42
2019-03-11T22:54:32.554Z,97061.97
2019-03-11T22:57:22.293Z,97052.63
2019-03-11T23:00:07.187Z,97058.00
2019-03-11T23:02:57.012Z,97047.31
2019-03-11T23:05:39.088Z,97050.76
2019-03-11T23:08:28.940Z,97045.45
2019-03-11T23:11:11.069Z,97032.62
2019-03-11T23:17:02.088Z,97035.50
2019-03-11T23:19:51.907Z,97043.78
2019-03-11T23:22:34.687Z,97048.39
2019-03-11T23:25:24.496Z,97054.60
2019-03-11T23:28:06.638Z,97050.76
2019-03-11T23:30:56.373Z,97058.27
2019-03-11T23:33:39.022Z,97053.63
2019-03-11T23:36:47.855Z,97050.63
2019-03-11T23:39:30.469Z,97041.77
2019-03-11T23:45:15.755Z,97034.03
2019-03-11T23:48:05.603Z,97032.22
2019-03-11T23:50:55.383Z,97059.23
2019-03-11T23:54:04.232Z,97061.77
2019-03-11T23:56:54.275Z,97063.88
2019-03-11T23:59:44.004Z,97062.98
